MMLP/LAP METAR and TAF weather

Enter ICAO airport designator
Station Type Date Time Source
MMLP METAR 2020/04/01 23:45 UTC NOAA

MMLP 012345Z 22009KT 10SM SCT100 BKN220 30/M10 A2986 RMK SLP111 57002 957 8/038


Station Type Date Time Source
MMLP Decoded METAR 2020/04/01 23:45 UTC NOAA

La Paz International Airport, Mexico (MMLP) 24-04N 110-22W
Apr 01, 2020 - 07:45 PM EDT / 2020.04.01 2345 UTC
Wind: from the SW (220 degrees) at 10 MPH (9 KT):0
Visibility: 10 mile(s):0
Sky conditions: mostly cloudy
Temperature: 86 F (30 C)
Dew Point: 14 F (-10 C)
Relative Humidity: 6%
Pressure (altimeter): 29.86 in. Hg (1011 hPa)
Pressure tendency: 0.01 inches (0.2 hPa) lower than three hours ago
ob: MMLP 012345Z 22009KT 10SM SCT100 BKN220 30/M10 A2986 RMK SLP111 57002 957 8/038
cycle: 0

Station Type Date Time Source
MMLP TAF 2020/04/01 18:14 UTC NOAA

TAF MMLP 011706Z 0118/0218 34012KT P6SM SCT100 BKN250
FM020600 23010KT P6SM BKN200

Example: see airport list